sensor_id;sensor_type;location;lat;lon;timestamp;pressure;altitude;pressure_sealevel;temperature;humidity
41632;BME280;37452;51.938;4.624;2023-03-24T00:01:19;75497.63;;;-142.75;100.00
41632;BME280;37452;51.938;4.624;2023-03-24T00:03:44;75499.59;;;-142.75;100.00
41632;BME280;37452;51.938;4.624;2023-03-24T00:06:12;75507.47;;;-142.75;100.00
41632;BME280;37452;51.938;4.624;2023-03-24T00:08:37;75475.97;;;-142.75;100.00
41632;BME280;37452;51.938;4.624;2023-03-24T00:11:05;75468.09;;;-142.75;100.00
41632;BME280;37452;51.938;4.624;2023-03-24T00:13:31;75487.78;;;-142.75;100.00
41632;BME280;37452;51.938;4.624;2023-03-24T00:15:56;75470.06;;;-142.75;100.00
41632;BME280;37452;51.938;4.624;2023-03-24T00:18:21;75460.22;;;-142.75;100.00
41632;BME280;37452;51.938;4.624;2023-03-24T00:20:50;75452.34;;;-142.75;100.00
41632;BME280;37452;51.938;4.624;2023-03-24T00:23:16;75452.34;;;-142.75;100.00
41632;BME280;37452;51.938;4.624;2023-03-24T00:25:41;75456.28;;;-142.75;100.00
41632;BME280;37452;51.938;4.624;2023-03-24T00:28:07;75426.78;;;-142.75;100.00
41632;BME280;37452;51.938;4.624;2023-03-24T00:30:34;75424.81;;;-142.75;100.00
41632;BME280;37452;51.938;4.624;2023-03-24T00:32:59;75432.69;;;-142.75;100.00
41632;BME280;37452;51.938;4.624;2023-03-24T00:35:26;75434.66;;;-142.75;100.00
41632;BME280;37452;51.938;4.624;2023-03-24T00:37:52;75442.50;;;-142.75;100.00
41632;BME280;37452;51.938;4.624;2023-03-24T00:40:17;75426.78;;;-142.75;100.00
41632;BME280;37452;51.938;4.624;2023-03-24T00:42:43;75420.88;;;-142.75;100.00
41632;BME280;37452;51.938;4.624;2023-03-24T00:45:10;75409.06;;;-142.75;100.00
41632;BME280;37452;51.938;4.624;2023-03-24T00:47:36;75420.88;;;-142.75;100.00
41632;BME280;37452;51.938;4.624;2023-03-24T00:50:05;75432.69;;;-142.75;100.00
41632;BME280;37452;51.938;4.624;2023-03-24T00:52:31;75434.66;;;-142.75;100.00
41632;BME280;37452;51.938;4.624;2023-03-24T00:54:58;75426.78;;;-142.75;100.00
41632;BME280;37452;51.938;4.624;2023-03-24T00:57:25;75428.75;;;-142.75;100.00
41632;BME280;37452;51.938;4.624;2023-03-24T00:59:54;75422.84;;;-142.75;100.00
41632;BME280;37452;51.938;4.624;2023-03-24T01:02:21;75424.81;;;-142.75;100.00
41632;BME280;37452;51.938;4.624;2023-03-24T01:04:47;75413.00;;;-142.75;100.00
41632;BME280;37452;51.938;4.624;2023-03-24T01:07:15;75411.03;;;-142.75;100.00
41632;BME280;37452;51.938;4.624;2023-03-24T01:09:44;75405.13;;;-142.75;100.00
41632;BME280;37452;51.938;4.624;2023-03-24T01:12:16;75397.25;;;-142.75;100.00
41632;BME280;37452;51.938;4.624;2023-03-24T01:14:43;75401.19;;;-142.75;100.00
41632;BME280;37452;51.938;4.624;2023-03-24T01:17:08;75399.22;;;-142.75;100.00
41632;BME280;37452;51.938;4.624;2023-03-24T01:19:33;75393.31;;;-142.75;100.00
41632;BME280;37452;51.938;4.624;2023-03-24T01:22:00;75397.25;;;-142.75;100.00
41632;BME280;37452;51.938;4.624;2023-03-24T01:24:26;75393.31;;;-142.75;100.00
41632;BME280;37452;51.938;4.624;2023-03-24T01:26:51;75389.38;;;-142.75;100.00
41632;BME280;37452;51.938;4.624;2023-03-24T01:29:17;75383.47;;;-142.75;100.00
41632;BME280;37452;51.938;4.624;2023-03-24T01:31:42;75391.34;;;-142.75;100.00
41632;BME280;37452;51.938;4.624;2023-03-24T01:34:07;75387.41;;;-142.75;100.00
41632;BME280;37452;51.938;4.624;2023-03-24T01:36:32;75387.41;;;-142.75;100.00
41632;BME280;37452;51.938;4.624;2023-03-24T01:38:58;75381.50;;;-142.75;100.00
41632;BME280;37452;51.938;4.624;2023-03-24T01:41:26;75371.66;;;-142.75;100.00
41632;BME280;37452;51.938;4.624;2023-03-24T01:43:51;75389.38;;;-142.75;100.00
41632;BME280;37452;51.938;4.624;2023-03-24T01:46:20;75381.50;;;-142.75;100.00
41632;BME280;37452;51.938;4.624;2023-03-24T01:51:24;75407.09;;;-142.75;100.00
41632;BME280;37452;51.938;4.624;2023-03-24T01:53:55;75414.97;;;-142.75;100.00
41632;BME280;37452;51.938;4.624;2023-03-24T01:56:21;75436.59;;;-142.75;100.00
41632;BME280;37452;51.938;4.624;2023-03-24T01:58:55;75460.22;;;-142.75;100.00
41632;BME280;37452;51.938;4.624;2023-03-24T02:01:22;75470.06;;;-142.75;100.00
41632;BME280;37452;51.938;4.624;2023-03-24T02:03:50;75477.94;;;-142.75;100.00
41632;BME280;37452;51.938;4.624;2023-03-24T02:06:17;75509.44;;;-142.75;100.00
41632;BME280;37452;51.938;4.624;2023-03-24T02:08:48;75535.00;;;-142.75;100.00
41632;BME280;37452;51.938;4.624;2023-03-24T02:11:16;75540.91;;;-142.75;100.00
41632;BME280;37452;51.938;4.624;2023-03-24T02:13:41;75544.84;;;-142.75;100.00
41632;BME280;37452;51.938;4.624;2023-03-24T02:18:45;75601.91;;;-142.75;100.00
41632;BME280;37452;51.938;4.624;2023-03-24T02:39:59;75747.56;;;-142.75;100.00
41632;BME280;37452;51.938;4.624;2023-03-24T02:42:41;75761.34;;;-142.75;100.00
41632;BME280;37452;51.938;4.624;2023-03-24T02:50:41;75786.91;;;-142.75;100.00
41632;BME280;37452;51.938;4.624;2023-03-24T02:55:51;75812.50;;;-142.75;100.00
41632;BME280;37452;51.938;4.624;2023-03-24T02:58:18;75826.28;;;-142.75;100.00
41632;BME280;37452;51.938;4.624;2023-03-24T03:00:48;75847.94;;;-142.75;100.00
41632;BME280;37452;51.938;4.624;2023-03-24T03:03:22;75844.00;;;-142.75;100.00
41632;BME280;37452;51.938;4.624;2023-03-24T03:05:51;75857.78;;;-142.75;100.00
41632;BME280;37452;51.938;4.624;2023-03-24T03:08:18;75863.66;;;-142.75;100.00
41632;BME280;37452;51.938;4.624;2023-03-24T03:10:46;75885.31;;;-142.75;100.00
41632;BME280;37452;51.938;4.624;2023-03-24T03:13:14;75867.59;;;-142.75;100.00
41632;BME280;37452;51.938;4.624;2023-03-24T03:15:43;75863.66;;;-142.75;100.00
41632;BME280;37452;51.938;4.624;2023-03-24T03:18:12;75873.50;;;-142.75;100.00
41632;BME280;37452;51.938;4.624;2023-03-24T03:20:41;75897.13;;;-142.75;100.00
41632;BME280;37452;51.938;4.624;2023-03-24T03:23:14;75885.31;;;-142.75;100.00
41632;BME280;37452;51.938;4.624;2023-03-24T03:25:42;75920.75;;;-142.75;100.00
41632;BME280;37452;51.938;4.624;2023-03-24T03:28:15;75916.81;;;-142.75;100.00
41632;BME280;37452;51.938;4.624;2023-03-24T03:30:46;75905.00;;;-142.75;100.00
41632;BME280;37452;51.938;4.624;2023-03-24T03:33:17;75924.69;;;-142.75;100.00
41632;BME280;37452;51.938;4.624;2023-03-24T03:36:52;75926.66;;;-142.75;100.00
41632;BME280;37452;51.938;4.624;2023-03-24T03:38:48;75908.94;;;-142.75;100.00
41632;BME280;37452;51.938;4.624;2023-03-24T03:41:16;75916.81;;;-142.75;100.00
41632;BME280;37452;51.938;4.624;2023-03-24T03:43:42;75914.84;;;-142.75;100.00
41632;BME280;37452;51.938;4.624;2023-03-24T03:46:08;75924.69;;;-142.75;100.00
41632;BME280;37452;51.938;4.624;2023-03-24T03:48:33;75912.88;;;-142.75;100.00
41632;BME280;37452;51.938;4.624;2023-03-24T03:50:58;75920.75;;;-142.75;100.00
41632;BME280;37452;51.938;4.624;2023-03-24T03:53:29;75916.81;;;-142.75;100.00
41632;BME280;37452;51.938;4.624;2023-03-24T03:55:57;75908.94;;;-142.75;100.00
41632;BME280;37452;51.938;4.624;2023-03-24T03:58:22;75926.66;;;-142.75;100.00
41632;BME280;37452;51.938;4.624;2023-03-24T04:00:48;75914.84;;;-142.75;100.00
41632;BME280;37452;51.938;4.624;2023-03-24T04:03:20;75920.75;;;-142.75;100.00
41632;BME280;37452;51.938;4.624;2023-03-24T04:08:24;75948.31;;;-142.75;100.00
41632;BME280;37452;51.938;4.624;2023-03-24T04:16:13;75969.94;;;-142.75;100.00
41632;BME280;37452;51.938;4.624;2023-03-24T04:23:49;76007.34;;;-142.75;100.00
41632;BME280;37452;51.938;4.624;2023-03-24T04:26:26;76009.31;;;-142.75;100.00
41632;BME280;37452;51.938;4.624;2023-03-24T04:31:47;76017.19;;;-142.75;100.00
41632;BME280;37452;51.938;4.624;2023-03-24T04:34:18;76032.94;;;-142.75;100.00
41632;BME280;37452;51.938;4.624;2023-03-24T04:36:56;76034.91;;;-142.75;100.00
41632;BME280;37452;51.938;4.624;2023-03-24T04:39:27;76023.09;;;-142.75;100.00
41632;BME280;37452;51.938;4.624;2023-03-24T04:41:54;76027.03;;;-142.75;100.00
41632;BME280;37452;51.938;4.624;2023-03-24T04:44:20;76023.09;;;-142.75;100.00
41632;BME280;37452;51.938;4.624;2023-03-24T04:46:47;76034.91;;;-142.75;100.00
41632;BME280;37452;51.938;4.624;2023-03-24T04:49:13;76023.09;;;-142.75;100.00
41632;BME280;37452;51.938;4.624;2023-03-24T04:51:38;76034.91;;;-142.75;100.00
41632;BME280;37452;51.938;4.624;2023-03-24T04:54:04;76032.94;;;-142.75;100.00
41632;BME280;37452;51.938;4.624;2023-03-24T04:56:37;76032.94;;;-142.75;100.00
41632;BME280;37452;51.938;4.624;2023-03-24T04:59:04;76032.94;;;-142.75;100.00
41632;BME280;37452;51.938;4.624;2023-03-24T05:01:31;76038.84;;;-142.75;100.00
41632;BME280;37452;51.938;4.624;2023-03-24T05:03:56;76030.97;;;-142.75;100.00
41632;BME280;37452;51.938;4.624;2023-03-24T05:06:22;76030.97;;;-142.75;100.00
41632;BME280;37452;51.938;4.624;2023-03-24T05:08:48;76040.81;;;-142.75;100.00
41632;BME280;37452;51.938;4.624;2023-03-24T05:11:13;76044.75;;;-142.75;100.00
41632;BME280;37452;51.938;4.624;2023-03-24T05:13:38;76052.63;;;-142.75;100.00
41632;BME280;37452;51.938;4.624;2023-03-24T05:16:04;76036.88;;;-142.75;100.00
41632;BME280;37452;51.938;4.624;2023-03-24T05:18:29;76052.63;;;-142.75;100.00
41632;BME280;37452;51.938;4.624;2023-03-24T05:20:54;76062.47;;;-142.75;100.00
41632;BME280;37452;51.938;4.624;2023-03-24T05:23:20;76074.25;;;-142.75;100.00
41632;BME280;37452;51.938;4.624;2023-03-24T05:25:46;76062.47;;;-142.75;100.00
41632;BME280;37452;51.938;4.624;2023-03-24T05:28:11;76058.53;;;-142.75;100.00
41632;BME280;37452;51.938;4.624;2023-03-24T05:30:36;76066.41;;;-142.75;100.00
41632;BME280;37452;51.938;4.624;2023-03-24T05:33:01;76060.50;;;-142.75;100.00
41632;BME280;37452;51.938;4.624;2023-03-24T05:35:27;76062.47;;;-142.75;100.00
41632;BME280;37452;51.938;4.624;2023-03-24T05:37:52;76054.59;;;-142.75;100.00
41632;BME280;37452;51.938;4.624;2023-03-24T05:40:17;76062.47;;;-142.75;100.00
41632;BME280;37452;51.938;4.624;2023-03-24T05:42:43;76062.47;;;-142.75;100.00
41632;BME280;37452;51.938;4.624;2023-03-24T05:45:08;76058.53;;;-142.75;100.00
41632;BME280;37452;51.938;4.624;2023-03-24T05:47:34;76058.53;;;-142.75;100.00
41632;BME280;37452;51.938;4.624;2023-03-24T05:49:59;76054.59;;;-142.75;100.00
41632;BME280;37452;51.938;4.624;2023-03-24T05:52:24;76058.53;;;-142.75;100.00
41632;BME280;37452;51.938;4.624;2023-03-24T05:54:50;76064.44;;;-142.75;100.00
41632;BME280;37452;51.938;4.624;2023-03-24T05:57:16;76086.06;;;-142.75;100.00
41632;BME280;37452;51.938;4.624;2023-03-24T05:59:42;76080.16;;;-142.75;100.00
41632;BME280;37452;51.938;4.624;2023-03-24T06:02:07;76088.03;;;-142.75;100.00
41632;BME280;37452;51.938;4.624;2023-03-24T06:04:32;76082.13;;;-142.75;100.00
41632;BME280;37452;51.938;4.624;2023-03-24T06:06:58;76078.19;;;-142.75;100.00
41632;BME280;37452;51.938;4.624;2023-03-24T06:09:24;76090.00;;;-142.75;100.00
41632;BME280;37452;51.938;4.624;2023-03-24T06:11:49;76082.13;;;-142.75;100.00
41632;BME280;37452;51.938;4.624;2023-03-24T06:14:14;76082.13;;;-142.75;100.00
41632;BME280;37452;51.938;4.624;2023-03-24T06:16:40;76091.97;;;-142.75;100.00
41632;BME280;37452;51.938;4.624;2023-03-24T06:19:06;76091.97;;;-142.75;100.00
41632;BME280;37452;51.938;4.624;2023-03-24T06:21:32;76090.00;;;-142.75;100.00
41632;BME280;37452;51.938;4.624;2023-03-24T06:23:57;76093.94;;;-142.75;100.00
41632;BME280;37452;51.938;4.624;2023-03-24T06:26:23;76091.97;;;-142.75;100.00
41632;BME280;37452;51.938;4.624;2023-03-24T06:28:48;76090.00;;;-142.75;100.00
41632;BME280;37452;51.938;4.624;2023-03-24T06:31:16;76095.91;;;-142.75;100.00
41632;BME280;37452;51.938;4.624;2023-03-24T06:33:44;76097.88;;;-142.75;100.00
41632;BME280;37452;51.938;4.624;2023-03-24T06:36:09;76090.00;;;-142.75;100.00
41632;BME280;37452;51.938;4.624;2023-03-24T06:38:36;76105.75;;;-142.75;100.00
41632;BME280;37452;51.938;4.624;2023-03-24T06:41:01;76090.00;;;-142.75;100.00
41632;BME280;37452;51.938;4.624;2023-03-24T06:43:27;76091.97;;;-142.75;100.00
41632;BME280;37452;51.938;4.624;2023-03-24T06:45:52;76090.00;;;-142.75;100.00
41632;BME280;37452;51.938;4.624;2023-03-24T06:48:18;76090.00;;;-142.75;100.00
41632;BME280;37452;51.938;4.624;2023-03-24T06:50:43;76066.41;;;-142.75;100.00
41632;BME280;37452;51.938;4.624;2023-03-24T06:53:08;76062.47;;;-142.75;100.00
41632;BME280;37452;51.938;4.624;2023-03-24T06:55:33;76068.38;;;-142.75;100.00
41632;BME280;37452;51.938;4.624;2023-03-24T06:57:59;76050.66;;;-142.75;100.00
41632;BME280;37452;51.938;4.624;2023-03-24T07:00:24;76023.09;;;-142.75;100.00
41632;BME280;37452;51.938;4.624;2023-03-24T07:02:49;76007.34;;;-142.75;100.00
41632;BME280;37452;51.938;4.624;2023-03-24T07:05:16;76046.72;;;-142.75;100.00
41632;BME280;37452;51.938;4.624;2023-03-24T07:07:41;76038.84;;;-142.75;100.00
41632;BME280;37452;51.938;4.624;2023-03-24T07:10:07;76058.53;;;-142.75;100.00
41632;BME280;37452;51.938;4.624;2023-03-24T07:12:32;76040.81;;;-142.75;100.00
41632;BME280;37452;51.938;4.624;2023-03-24T07:14:58;76023.09;;;-142.75;100.00
41632;BME280;37452;51.938;4.624;2023-03-24T07:17:23;76023.09;;;-142.75;100.00
41632;BME280;37452;51.938;4.624;2023-03-24T07:19:49;76038.84;;;-142.75;100.00
41632;BME280;37452;51.938;4.624;2023-03-24T07:22:14;76034.91;;;-142.75;100.00
41632;BME280;37452;51.938;4.624;2023-03-24T07:24:39;76056.56;;;-142.75;100.00
41632;BME280;37452;51.938;4.624;2023-03-24T07:27:05;76038.84;;;-142.75;100.00
41632;BME280;37452;51.938;4.624;2023-03-24T07:29:30;76032.94;;;-142.75;100.00
41632;BME280;37452;51.938;4.624;2023-03-24T07:31:56;76023.09;;;-142.75;100.00
41632;BME280;37452;51.938;4.624;2023-03-24T07:34:24;75977.81;;;-142.75;100.00
41632;BME280;37452;51.938;4.624;2023-03-24T07:36:50;75989.63;;;-142.75;100.00
41632;BME280;37452;51.938;4.624;2023-03-24T07:39:15;75979.78;;;-142.75;100.00
41632;BME280;37452;51.938;4.624;2023-03-24T07:41:41;75975.84;;;-142.75;100.00
41632;BME280;37452;51.938;4.624;2023-03-24T07:44:07;75964.03;;;-142.75;100.00
41632;BME280;37452;51.938;4.624;2023-03-24T07:46:32;75999.47;;;-142.75;100.00
41632;BME280;37452;51.938;4.624;2023-03-24T07:48:57;75962.09;;;-142.75;100.00
41632;BME280;37452;51.938;4.624;2023-03-24T07:51:23;75966.00;;;-142.75;100.00
41632;BME280;37452;51.938;4.624;2023-03-24T07:53:48;75954.22;;;-142.75;100.00
41632;BME280;37452;51.938;4.624;2023-03-24T07:56:13;75916.81;;;-142.75;100.00
41632;BME280;37452;51.938;4.624;2023-03-24T07:58:39;75950.28;;;-142.75;100.00
41632;BME280;37452;51.938;4.624;2023-03-24T08:01:05;75960.13;;;-142.75;100.00
41632;BME280;37452;51.938;4.624;2023-03-24T08:03:31;75914.84;;;-142.75;100.00
41632;BME280;37452;51.938;4.624;2023-03-24T08:05:57;75910.91;;;-142.75;100.00
41632;BME280;37452;51.938;4.624;2023-03-24T08:08:23;75924.69;;;-142.75;100.00
41632;BME280;37452;51.938;4.624;2023-03-24T08:10:49;75887.28;;;-142.75;100.00
41632;BME280;37452;51.938;4.624;2023-03-24T08:13:14;75826.28;;;-142.75;100.00
41632;BME280;37452;51.938;4.624;2023-03-24T08:15:40;75861.69;;;-142.75;100.00
41632;BME280;37452;51.938;4.624;2023-03-24T08:18:05;75792.81;;;-142.75;100.00
41632;BME280;37452;51.938;4.624;2023-03-24T08:20:31;75802.66;;;-142.75;100.00
41632;BME280;37452;51.938;4.624;2023-03-24T08:22:56;75806.59;;;-142.75;100.00
41632;BME280;37452;51.938;4.624;2023-03-24T08:25:22;75836.13;;;-142.75;100.00
41632;BME280;37452;51.938;4.624;2023-03-24T08:27:47;75804.63;;;-142.75;100.00
41632;BME280;37452;51.938;4.624;2023-03-24T08:30:14;75782.97;;;-142.75;100.00
41632;BME280;37452;51.938;4.624;2023-03-24T08:32:44;75743.63;;;-142.75;100.00
41632;BME280;37452;51.938;4.624;2023-03-24T08:35:10;75759.38;;;-142.75;100.00
41632;BME280;37452;51.938;4.624;2023-03-24T08:37:38;75814.47;;;-142.75;100.00
41632;BME280;37452;51.938;4.624;2023-03-24T08:40:03;75845.97;;;-142.75;100.00
41632;BME280;37452;51.938;4.624;2023-03-24T08:42:29;75810.53;;;-142.75;100.00
41632;BME280;37452;51.938;4.624;2023-03-24T08:44:55;75830.22;;;-142.75;100.00
41632;BME280;37452;51.938;4.624;2023-03-24T08:47:20;75865.63;;;-142.75;100.00
41632;BME280;37452;51.938;4.624;2023-03-24T08:49:45;75865.63;;;-142.75;100.00
41632;BME280;37452;51.938;4.624;2023-03-24T08:52:10;75849.91;;;-142.75;100.00
41632;BME280;37452;51.938;4.624;2023-03-24T08:54:36;75855.81;;;-142.75;100.00
41632;BME280;37452;51.938;4.624;2023-03-24T08:57:01;75906.97;;;-142.75;100.00
41632;BME280;37452;51.938;4.624;2023-03-24T08:59:26;75849.91;;;-142.75;100.00
41632;BME280;37452;51.938;4.624;2023-03-24T09:01:51;75798.72;;;-142.75;100.00
41632;BME280;37452;51.938;4.624;2023-03-24T09:04:16;75814.47;;;-142.75;100.00
41632;BME280;37452;51.938;4.624;2023-03-24T09:06:42;75771.16;;;-142.75;100.00
41632;BME280;37452;51.938;4.624;2023-03-24T09:09:07;75786.91;;;-142.75;100.00
41632;BME280;37452;51.938;4.624;2023-03-24T09:11:32;75804.63;;;-142.75;100.00
41632;BME280;37452;51.938;4.624;2023-03-24T09:13:58;75743.63;;;-142.75;100.00
41632;BME280;37452;51.938;4.624;2023-03-24T09:16:24;75773.13;;;-142.75;100.00
41632;BME280;37452;51.938;4.624;2023-03-24T09:18:49;75714.09;;;-142.75;100.00
41632;BME280;37452;51.938;4.624;2023-03-24T09:21:15;75731.81;;;-142.75;100.00
41632;BME280;37452;51.938;4.624;2023-03-24T09:23:40;75737.72;;;-142.75;100.00
41632;BME280;37452;51.938;4.624;2023-03-24T09:26:06;75763.28;;;-142.75;100.00
41632;BME280;37452;51.938;4.624;2023-03-24T09:28:31;75771.16;;;-142.75;100.00
41632;BME280;37452;51.938;4.624;2023-03-24T09:30:57;75828.25;;;-142.75;100.00
41632;BME280;37452;51.938;4.624;2023-03-24T09:33:22;75771.16;;;-142.75;100.00
41632;BME280;37452;51.938;4.624;2023-03-24T09:35:55;75804.63;;;-142.75;100.00
41632;BME280;37452;51.938;4.624;2023-03-24T09:38:20;75855.81;;;-142.75;100.00
41632;BME280;37452;51.938;4.624;2023-03-24T09:40:45;75869.56;;;-142.75;100.00
41632;BME280;37452;51.938;4.624;2023-03-24T09:43:14;75926.66;;;-142.75;100.00
41632;BME280;37452;51.938;4.624;2023-03-24T09:45:55;75899.09;;;-142.75;100.00
41632;BME280;37452;51.938;4.624;2023-03-24T09:56:20;75885.31;;;-142.75;100.00
41632;BME280;37452;51.938;4.624;2023-03-24T09:58:47;75889.25;;;-142.75;100.00
41632;BME280;37452;51.938;4.624;2023-03-24T10:01:15;75845.97;;;-142.75;100.00
41632;BME280;37452;51.938;4.624;2023-03-24T10:03:41;75743.63;;;-142.75;100.00
41632;BME280;37452;51.938;4.624;2023-03-24T10:06:08;75694.41;;;-142.75;100.00
41632;BME280;37452;51.938;4.624;2023-03-24T10:08:35;75686.53;;;-142.75;100.00
41632;BME280;37452;51.938;4.624;2023-03-24T10:15:58;75611.75;;;-142.75;100.00
41632;BME280;37452;51.938;4.624;2023-03-24T10:18:35;75637.34;;;-142.75;100.00
41632;BME280;37452;51.938;4.624;2023-03-24T10:21:11;75550.75;;;-142.75;100.00
41632;BME280;37452;51.938;4.624;2023-03-24T10:26:24;75672.78;;;-142.75;100.00
41632;BME280;37452;51.938;4.624;2023-03-24T10:29:02;75700.31;;;-142.75;100.00
41632;BME280;37452;51.938;4.624;2023-03-24T10:31:30;75706.22;;;-142.75;100.00
41632;BME280;37452;51.938;4.624;2023-03-24T10:33:57;75674.72;;;-142.75;100.00
41632;BME280;37452;51.938;4.624;2023-03-24T10:36:23;75655.06;;;-142.75;100.00
41632;BME280;37452;51.938;4.624;2023-03-24T10:38:49;75649.16;;;-142.75;100.00
41632;BME280;37452;51.938;4.624;2023-03-24T10:41:15;75670.81;;;-142.75;100.00
41632;BME280;37452;51.938;4.624;2023-03-24T10:43:42;75696.38;;;-142.75;100.00
41632;BME280;37452;51.938;4.624;2023-03-24T10:46:08;75737.72;;;-142.75;100.00
41632;BME280;37452;51.938;4.624;2023-03-24T10:48:41;75781.00;;;-142.75;100.00
41632;BME280;37452;51.938;4.624;2023-03-24T10:51:11;75820.38;;;-142.75;100.00
41632;BME280;37452;51.938;4.624;2023-03-24T10:53:37;75808.56;;;-142.75;100.00
41632;BME280;37452;51.938;4.624;2023-03-24T10:56:03;75802.66;;;-142.75;100.00
41632;BME280;37452;51.938;4.624;2023-03-24T10:58:31;75779.03;;;-142.75;100.00
41632;BME280;37452;51.938;4.624;2023-03-24T11:01:00;75779.03;;;-142.75;100.00
41632;BME280;37452;51.938;4.624;2023-03-24T11:03:29;75828.25;;;-142.75;100.00
41632;BME280;37452;51.938;4.624;2023-03-24T11:06:02;75847.94;;;-142.75;100.00
41632;BME280;37452;51.938;4.624;2023-03-24T11:08:33;75806.59;;;-142.75;100.00
41632;BME280;37452;51.938;4.624;2023-03-24T11:10:59;75755.44;;;-142.75;100.00
41632;BME280;37452;51.938;4.624;2023-03-24T11:13:31;75763.28;;;-142.75;100.00
41632;BME280;37452;51.938;4.624;2023-03-24T11:18:32;75759.38;;;-142.75;100.00
41632;BME280;37452;51.938;4.624;2023-03-24T11:20:58;75645.22;;;-142.75;100.00
41632;BME280;37452;51.938;4.624;2023-03-24T11:23:32;75594.06;;;-142.75;100.00
41632;BME280;37452;51.938;4.624;2023-03-24T11:28:26;75633.41;;;-142.75;100.00
41632;BME280;37452;51.938;4.624;2023-03-24T11:30:52;75682.59;;;-142.75;100.00
41632;BME280;37452;51.938;4.624;2023-03-24T11:33:23;75723.94;;;-142.75;100.00
41632;BME280;37452;51.938;4.624;2023-03-24T11:35:50;75714.09;;;-142.75;100.00
41632;BME280;37452;51.938;4.624;2023-03-24T11:38:17;75692.44;;;-142.75;100.00
41632;BME280;37452;51.938;4.624;2023-03-24T11:40:58;75731.81;;;-142.75;100.00
41632;BME280;37452;51.938;4.624;2023-03-24T11:43:25;75721.97;;;-142.75;100.00
41632;BME280;37452;51.938;4.624;2023-03-24T11:46:03;75706.22;;;-142.75;100.00
41632;BME280;37452;51.938;4.624;2023-03-24T11:50:59;75729.84;;;-142.75;100.00
41632;BME280;37452;51.938;4.624;2023-03-24T11:53:27;75782.97;;;-142.75;100.00
41632;BME280;37452;51.938;4.624;2023-03-24T11:58:35;75786.91;;;-142.75;100.00
41632;BME280;37452;51.938;4.624;2023-03-24T12:06:29;75763.28;;;-142.75;100.00
41632;BME280;37452;51.938;4.624;2023-03-24T12:14:13;75562.56;;;-142.75;100.00
41632;BME280;37452;51.938;4.624;2023-03-24T12:22:01;75727.88;;;-142.75;100.00
41632;BME280;37452;51.938;4.624;2023-03-24T12:26:57;75806.59;;;-142.75;100.00
41632;BME280;37452;51.938;4.624;2023-03-24T12:37:08;75877.44;;;-142.75;100.00
41632;BME280;37452;51.938;4.624;2023-03-24T12:39:41;75818.41;;;-142.75;100.00
41632;BME280;37452;51.938;4.624;2023-03-24T12:42:10;75857.78;;;-142.75;100.00
41632;BME280;37452;51.938;4.624;2023-03-24T12:49:41;75710.16;;;-142.75;100.00
41632;BME280;37452;51.938;4.624;2023-03-24T12:55:07;75763.28;;;-142.75;100.00
41632;BME280;37452;51.938;4.624;2023-03-24T12:57:37;75782.97;;;-142.75;100.00
41632;BME280;37452;51.938;4.624;2023-03-24T13:00:06;75784.94;;;-142.75;100.00
41632;BME280;37452;51.938;4.624;2023-03-24T13:02:50;75838.09;;;-142.75;100.00
41632;BME280;37452;51.938;4.624;2023-03-24T13:05:18;75838.09;;;-142.75;100.00
41632;BME280;37452;51.938;4.624;2023-03-24T13:07:45;75828.25;;;-142.75;100.00
41632;BME280;37452;51.938;4.624;2023-03-24T13:10:21;75849.91;;;-142.75;100.00
41632;BME280;37452;51.938;4.624;2023-03-24T13:12:52;75881.38;;;-142.75;100.00
41632;BME280;37452;51.938;4.624;2023-03-24T13:20:32;75956.19;;;-142.75;100.00
41632;BME280;37452;51.938;4.624;2023-03-24T13:25:51;75960.13;;;-142.75;100.00
41632;BME280;37452;51.938;4.624;2023-03-24T13:28:21;75905.00;;;-142.75;100.00
41632;BME280;37452;51.938;4.624;2023-03-24T13:30:49;75920.75;;;-142.75;100.00
41632;BME280;37452;51.938;4.624;2023-03-24T13:33:16;75912.88;;;-142.75;100.00
41632;BME280;37452;51.938;4.624;2023-03-24T13:38:34;75875.47;;;-142.75;100.00
41632;BME280;37452;51.938;4.624;2023-03-24T13:41:05;75885.31;;;-142.75;100.00
41632;BME280;37452;51.938;4.624;2023-03-24T13:43:31;75889.25;;;-142.75;100.00
41632;BME280;37452;51.938;4.624;2023-03-24T13:45:58;75893.19;;;-142.75;100.00
41632;BME280;37452;51.938;4.624;2023-03-24T13:53:37;75885.31;;;-142.75;100.00
41632;BME280;37452;51.938;4.624;2023-03-24T13:56:04;75910.91;;;-142.75;100.00
41632;BME280;37452;51.938;4.624;2023-03-24T13:58:47;75916.81;;;-142.75;100.00
41632;BME280;37452;51.938;4.624;2023-03-24T14:01:18;75916.81;;;-142.75;100.00
41632;BME280;37452;51.938;4.624;2023-03-24T14:06:45;75928.63;;;-142.75;100.00
41632;BME280;37452;51.938;4.624;2023-03-24T14:12:34;75916.81;;;-142.75;100.00
41632;BME280;37452;51.938;4.624;2023-03-24T14:14:35;75932.56;;;-142.75;100.00
41632;BME280;37452;51.938;4.624;2023-03-24T14:24:28;75906.97;;;-142.75;100.00
41632;BME280;37452;51.938;4.624;2023-03-24T14:26:54;75914.84;;;-142.75;100.00
41632;BME280;37452;51.938;4.624;2023-03-24T14:29:36;75895.16;;;-142.75;100.00
41632;BME280;37452;51.938;4.624;2023-03-24T14:32:02;75906.97;;;-142.75;100.00
41632;BME280;37452;51.938;4.624;2023-03-24T14:34:28;75912.88;;;-142.75;100.00
41632;BME280;37452;51.938;4.624;2023-03-24T14:37:00;75903.03;;;-142.75;100.00
41632;BME280;37452;51.938;4.624;2023-03-24T14:39:35;75883.34;;;-142.75;100.00
41632;BME280;37452;51.938;4.624;2023-03-24T14:47:21;75885.31;;;-142.75;100.00
41632;BME280;37452;51.938;4.624;2023-03-24T14:49:47;75887.28;;;-142.75;100.00
41632;BME280;37452;51.938;4.624;2023-03-24T14:52:19;75899.09;;;-142.75;100.00
41632;BME280;37452;51.938;4.624;2023-03-24T14:57:15;75905.00;;;-142.75;100.00